sensor_id;sensor_type;location;lat;lon;timestamp;P1;durP1;ratioP1;P2;durP2;ratioP2
77581;SDS011;66726;52.388;9.986;2023-03-26T00:02:17;7.00;;;3.93;;
77581;SDS011;66726;52.388;9.986;2023-03-26T00:04:49;5.93;;;3.20;;
77581;SDS011;66726;52.388;9.986;2023-03-26T00:07:22;6.43;;;3.30;;
77581;SDS011;66726;52.388;9.986;2023-03-26T00:09:54;5.57;;;3.70;;
77581;SDS011;66726;52.388;9.986;2023-03-26T00:12:26;7.60;;;4.30;;
77581;SDS011;66726;52.388;9.986;2023-03-26T00:14:58;7.60;;;3.53;;
77581;SDS011;66726;52.388;9.986;2023-03-26T00:17:30;4.20;;;2.87;;
77581;SDS011;66726;52.388;9.986;2023-03-26T00:20:02;6.40;;;3.60;;
77581;SDS011;66726;52.388;9.986;2023-03-26T00:22:38;8.43;;;3.80;;
77581;SDS011;66726;52.388;9.986;2023-03-26T00:25:10;8.40;;;3.30;;
77581;SDS011;66726;52.388;9.986;2023-03-26T00:27:42;6.67;;;3.33;;
77581;SDS011;66726;52.388;9.986;2023-03-26T00:30:15;5.90;;;3.20;;
77581;SDS011;66726;52.388;9.986;2023-03-26T00:32:47;7.77;;;3.50;;
77581;SDS011;66726;52.388;9.986;2023-03-26T00:35:19;6.13;;;3.40;;
77581;SDS011;66726;52.388;9.986;2023-03-26T00:37:52;4.97;;;3.23;;
77581;SDS011;66726;52.388;9.986;2023-03-26T00:40:25;4.97;;;2.90;;
77581;SDS011;66726;52.388;9.986;2023-03-26T00:42:57;8.60;;;3.20;;
77581;SDS011;66726;52.388;9.986;2023-03-26T00:45:35;6.43;;;2.97;;
77581;SDS011;66726;52.388;9.986;2023-03-26T00:48:06;5.53;;;2.90;;
77581;SDS011;66726;52.388;9.986;2023-03-26T00:50:39;6.90;;;3.20;;
77581;SDS011;66726;52.388;9.986;2023-03-26T00:53:14;5.63;;;2.80;;
77581;SDS011;66726;52.388;9.986;2023-03-26T00:55:47;7.60;;;3.07;;
77581;SDS011;66726;52.388;9.986;2023-03-26T00:58:19;4.83;;;2.80;;
77581;SDS011;66726;52.388;9.986;2023-03-26T01:00:52;5.83;;;2.60;;
77581;SDS011;66726;52.388;9.986;2023-03-26T01:03:29;6.00;;;2.70;;
77581;SDS011;66726;52.388;9.986;2023-03-26T01:06:05;7.40;;;2.63;;
77581;SDS011;66726;52.388;9.986;2023-03-26T01:08:43;7.23;;;3.17;;
77581;SDS011;66726;52.388;9.986;2023-03-26T01:11:18;8.17;;;2.67;;
77581;SDS011;66726;52.388;9.986;2023-03-26T01:13:56;15.80;;;3.70;;
77581;SDS011;66726;52.388;9.986;2023-03-26T01:16:33;6.33;;;2.40;;
77581;SDS011;66726;52.388;9.986;2023-03-26T01:19:11;7.87;;;2.47;;
77581;SDS011;66726;52.388;9.986;2023-03-26T01:21:51;8.90;;;2.27;;
77581;SDS011;66726;52.388;9.986;2023-03-26T01:24:25;5.70;;;2.23;;
77581;SDS011;66726;52.388;9.986;2023-03-26T01:27:00;7.77;;;2.37;;
77581;SDS011;66726;52.388;9.986;2023-03-26T01:29:43;7.57;;;2.43;;
77581;SDS011;66726;52.388;9.986;2023-03-26T01:32:25;5.30;;;2.33;;
77581;SDS011;66726;52.388;9.986;2023-03-26T01:35:12;6.60;;;2.30;;
77581;SDS011;66726;52.388;9.986;2023-03-26T01:37:54;6.07;;;2.10;;
77581;SDS011;66726;52.388;9.986;2023-03-26T01:40:39;4.93;;;2.27;;
77581;SDS011;66726;52.388;9.986;2023-03-26T01:43:18;8.40;;;2.60;;
77581;SDS011;66726;52.388;9.986;2023-03-26T01:45:57;5.50;;;2.40;;
77581;SDS011;66726;52.388;9.986;2023-03-26T01:48:35;6.83;;;2.63;;
77581;SDS011;66726;52.388;9.986;2023-03-26T01:51:10;4.93;;;2.33;;
77581;SDS011;66726;52.388;9.986;2023-03-26T01:53:53;4.73;;;1.90;;
77581;SDS011;66726;52.388;9.986;2023-03-26T01:56:30;6.63;;;2.23;;
77581;SDS011;66726;52.388;9.986;2023-03-26T01:59:15;6.47;;;2.00;;
77581;SDS011;66726;52.388;9.986;2023-03-26T02:02:12;6.80;;;2.60;;
77581;SDS011;66726;52.388;9.986;2023-03-26T02:04:54;5.17;;;3.60;;
77581;SDS011;66726;52.388;9.986;2023-03-26T02:07:40;6.97;;;2.23;;
77581;SDS011;66726;52.388;9.986;2023-03-26T02:10:18;7.43;;;2.40;;
77581;SDS011;66726;52.388;9.986;2023-03-26T02:12:55;5.23;;;2.23;;
77581;SDS011;66726;52.388;9.986;2023-03-26T02:15:28;4.03;;;2.17;;
77581;SDS011;66726;52.388;9.986;2023-03-26T02:18:00;3.80;;;2.13;;
77581;SDS011;66726;52.388;9.986;2023-03-26T02:20:35;6.07;;;1.90;;
77581;SDS011;66726;52.388;9.986;2023-03-26T02:23:07;4.43;;;1.83;;
77581;SDS011;66726;52.388;9.986;2023-03-26T02:25:39;6.20;;;2.90;;
77581;SDS011;66726;52.388;9.986;2023-03-26T02:28:12;6.23;;;2.00;;
77581;SDS011;66726;52.388;9.986;2023-03-26T02:30:44;4.50;;;2.00;;
77581;SDS011;66726;52.388;9.986;2023-03-26T02:33:16;8.27;;;1.67;;
77581;SDS011;66726;52.388;9.986;2023-03-26T02:35:48;5.33;;;2.23;;
77581;SDS011;66726;52.388;9.986;2023-03-26T02:38:20;5.20;;;1.63;;
77581;SDS011;66726;52.388;9.986;2023-03-26T02:40:52;7.43;;;3.63;;
77581;SDS011;66726;52.388;9.986;2023-03-26T02:43:25;7.17;;;1.90;;
77581;SDS011;66726;52.388;9.986;2023-03-26T02:45:57;6.37;;;1.93;;
77581;SDS011;66726;52.388;9.986;2023-03-26T02:48:30;7.43;;;1.90;;
77581;SDS011;66726;52.388;9.986;2023-03-26T02:51:02;5.40;;;1.80;;
77581;SDS011;66726;52.388;9.986;2023-03-26T02:53:34;2.70;;;1.70;;
77581;SDS011;66726;52.388;9.986;2023-03-26T02:56:07;5.17;;;1.83;;
77581;SDS011;66726;52.388;9.986;2023-03-26T02:58:41;6.43;;;1.90;;
77581;SDS011;66726;52.388;9.986;2023-03-26T03:01:13;3.43;;;1.60;;
77581;SDS011;66726;52.388;9.986;2023-03-26T03:03:45;5.83;;;1.90;;
77581;SDS011;66726;52.388;9.986;2023-03-26T03:06:17;5.60;;;1.80;;
77581;SDS011;66726;52.388;9.986;2023-03-26T03:08:51;6.37;;;1.67;;
77581;SDS011;66726;52.388;9.986;2023-03-26T03:11:23;4.63;;;1.63;;
77581;SDS011;66726;52.388;9.986;2023-03-26T03:13:57;6.07;;;1.60;;
77581;SDS011;66726;52.388;9.986;2023-03-26T03:16:29;2.83;;;1.57;;
77581;SDS011;66726;52.388;9.986;2023-03-26T03:19:01;4.27;;;2.10;;
77581;SDS011;66726;52.388;9.986;2023-03-26T03:21:33;3.50;;;1.80;;
77581;SDS011;66726;52.388;9.986;2023-03-26T03:24:03;5.33;;;1.50;;
77581;SDS011;66726;52.388;9.986;2023-03-26T03:26:38;5.67;;;1.87;;
77581;SDS011;66726;52.388;9.986;2023-03-26T03:29:12;6.73;;;2.20;;
77581;SDS011;66726;52.388;9.986;2023-03-26T03:31:43;3.73;;;1.70;;
77581;SDS011;66726;52.388;9.986;2023-03-26T03:34:15;6.07;;;2.43;;
77581;SDS011;66726;52.388;9.986;2023-03-26T03:36:48;7.10;;;2.23;;
77581;SDS011;66726;52.388;9.986;2023-03-26T03:39:20;3.90;;;1.90;;
77581;SDS011;66726;52.388;9.986;2023-03-26T03:41:53;8.03;;;2.50;;
77581;SDS011;66726;52.388;9.986;2023-03-26T03:44:26;6.07;;;2.30;;
77581;SDS011;66726;52.388;9.986;2023-03-26T03:46:58;4.53;;;1.80;;
77581;SDS011;66726;52.388;9.986;2023-03-26T03:49:29;6.00;;;2.03;;
77581;SDS011;66726;52.388;9.986;2023-03-26T03:52:01;7.10;;;2.00;;
77581;SDS011;66726;52.388;9.986;2023-03-26T03:54:33;5.80;;;1.87;;
77581;SDS011;66726;52.388;9.986;2023-03-26T03:57:05;9.33;;;2.53;;
77581;SDS011;66726;52.388;9.986;2023-03-26T03:59:38;4.43;;;2.23;;
77581;SDS011;66726;52.388;9.986;2023-03-26T04:02:13;5.80;;;2.03;;
77581;SDS011;66726;52.388;9.986;2023-03-26T04:04:52;4.10;;;1.80;;
77581;SDS011;66726;52.388;9.986;2023-03-26T04:07:23;5.40;;;1.83;;
77581;SDS011;66726;52.388;9.986;2023-03-26T04:09:57;6.87;;;1.90;;
77581;SDS011;66726;52.388;9.986;2023-03-26T04:12:30;4.93;;;1.87;;
77581;SDS011;66726;52.388;9.986;2023-03-26T04:15:04;3.63;;;1.60;;
77581;SDS011;66726;52.388;9.986;2023-03-26T04:17:35;4.33;;;1.47;;
77581;SDS011;66726;52.388;9.986;2023-03-26T04:20:10;6.30;;;1.50;;
77581;SDS011;66726;52.388;9.986;2023-03-26T04:22:44;3.80;;;1.27;;
77581;SDS011;66726;52.388;9.986;2023-03-26T04:25:16;6.53;;;2.00;;
77581;SDS011;66726;52.388;9.986;2023-03-26T04:27:55;6.10;;;2.20;;
77581;SDS011;66726;52.388;9.986;2023-03-26T04:30:33;3.90;;;1.77;;
77581;SDS011;66726;52.388;9.986;2023-03-26T04:33:08;4.03;;;1.60;;
77581;SDS011;66726;52.388;9.986;2023-03-26T04:35:41;5.10;;;1.63;;
77581;SDS011;66726;52.388;9.986;2023-03-26T04:38:13;7.03;;;2.13;;
77581;SDS011;66726;52.388;9.986;2023-03-26T04:40:46;5.23;;;2.17;;
77581;SDS011;66726;52.388;9.986;2023-03-26T04:43:18;6.73;;;2.23;;
77581;SDS011;66726;52.388;9.986;2023-03-26T04:45:51;5.77;;;1.93;;
77581;SDS011;66726;52.388;9.986;2023-03-26T04:48:27;4.53;;;1.90;;
77581;SDS011;66726;52.388;9.986;2023-03-26T04:50:59;5.27;;;2.10;;
77581;SDS011;66726;52.388;9.986;2023-03-26T04:53:32;6.07;;;2.20;;
77581;SDS011;66726;52.388;9.986;2023-03-26T04:56:05;5.40;;;2.23;;
77581;SDS011;66726;52.388;9.986;2023-03-26T04:58:52;5.03;;;1.80;;
77581;SDS011;66726;52.388;9.986;2023-03-26T05:01:29;5.60;;;2.47;;
77581;SDS011;66726;52.388;9.986;2023-03-26T05:04:03;4.43;;;2.00;;
77581;SDS011;66726;52.388;9.986;2023-03-26T05:06:35;6.33;;;2.57;;
77581;SDS011;66726;52.388;9.986;2023-03-26T05:09:08;7.67;;;2.40;;
77581;SDS011;66726;52.388;9.986;2023-03-26T05:11:39;7.97;;;2.10;;
77581;SDS011;66726;52.388;9.986;2023-03-26T05:14:11;5.30;;;2.23;;
77581;SDS011;66726;52.388;9.986;2023-03-26T05:16:45;7.80;;;2.33;;
77581;SDS011;66726;52.388;9.986;2023-03-26T05:19:19;6.93;;;2.07;;
77581;SDS011;66726;52.388;9.986;2023-03-26T05:21:51;6.00;;;2.30;;
77581;SDS011;66726;52.388;9.986;2023-03-26T05:24:23;10.67;;;2.13;;
77581;SDS011;66726;52.388;9.986;2023-03-26T05:26:55;5.07;;;2.03;;
77581;SDS011;66726;52.388;9.986;2023-03-26T05:29:26;7.30;;;2.10;;
77581;SDS011;66726;52.388;9.986;2023-03-26T05:32:00;5.60;;;2.30;;
77581;SDS011;66726;52.388;9.986;2023-03-26T05:34:32;6.77;;;2.27;;
77581;SDS011;66726;52.388;9.986;2023-03-26T05:37:05;8.57;;;2.37;;
77581;SDS011;66726;52.388;9.986;2023-03-26T05:39:37;5.50;;;2.53;;
77581;SDS011;66726;52.388;9.986;2023-03-26T05:42:11;8.13;;;2.43;;
77581;SDS011;66726;52.388;9.986;2023-03-26T05:44:42;8.57;;;2.60;;
77581;SDS011;66726;52.388;9.986;2023-03-26T05:47:16;7.53;;;2.90;;
77581;SDS011;66726;52.388;9.986;2023-03-26T05:49:48;7.10;;;2.10;;
77581;SDS011;66726;52.388;9.986;2023-03-26T05:52:20;7.40;;;2.70;;
77581;SDS011;66726;52.388;9.986;2023-03-26T05:54:52;8.07;;;2.80;;
77581;SDS011;66726;52.388;9.986;2023-03-26T05:57:24;5.60;;;2.60;;
77581;SDS011;66726;52.388;9.986;2023-03-26T05:59:58;4.17;;;2.50;;
77581;SDS011;66726;52.388;9.986;2023-03-26T06:02:32;7.37;;;2.70;;
77581;SDS011;66726;52.388;9.986;2023-03-26T06:05:04;7.63;;;3.47;;
77581;SDS011;66726;52.388;9.986;2023-03-26T06:07:37;6.63;;;2.83;;
77581;SDS011;66726;52.388;9.986;2023-03-26T06:10:09;6.73;;;3.00;;
77581;SDS011;66726;52.388;9.986;2023-03-26T06:12:44;8.10;;;3.10;;
77581;SDS011;66726;52.388;9.986;2023-03-26T06:15:16;6.77;;;3.40;;
77581;SDS011;66726;52.388;9.986;2023-03-26T06:17:49;8.40;;;3.10;;
77581;SDS011;66726;52.388;9.986;2023-03-26T06:20:21;8.67;;;2.93;;
77581;SDS011;66726;52.388;9.986;2023-03-26T06:22:53;10.77;;;3.10;;
77581;SDS011;66726;52.388;9.986;2023-03-26T06:25:25;6.97;;;3.50;;
77581;SDS011;66726;52.388;9.986;2023-03-26T06:27:56;8.53;;;3.10;;
77581;SDS011;66726;52.388;9.986;2023-03-26T06:30:28;6.07;;;3.20;;
77581;SDS011;66726;52.388;9.986;2023-03-26T06:33:02;7.70;;;3.10;;
77581;SDS011;66726;52.388;9.986;2023-03-26T06:35:34;5.47;;;2.83;;
77581;SDS011;66726;52.388;9.986;2023-03-26T06:38:08;5.07;;;3.17;;
77581;SDS011;66726;52.388;9.986;2023-03-26T06:40:39;6.03;;;2.80;;
77581;SDS011;66726;52.388;9.986;2023-03-26T06:43:11;6.63;;;3.10;;
77581;SDS011;66726;52.388;9.986;2023-03-26T06:45:43;10.17;;;3.33;;
77581;SDS011;66726;52.388;9.986;2023-03-26T06:48:20;7.23;;;3.30;;
77581;SDS011;66726;52.388;9.986;2023-03-26T06:50:51;5.00;;;2.77;;
77581;SDS011;66726;52.388;9.986;2023-03-26T06:53:23;11.33;;;3.17;;
77581;SDS011;66726;52.388;9.986;2023-03-26T06:55:55;11.07;;;3.40;;
77581;SDS011;66726;52.388;9.986;2023-03-26T06:58:28;7.60;;;2.70;;
77581;SDS011;66726;52.388;9.986;2023-03-26T07:01:00;7.83;;;3.20;;
77581;SDS011;66726;52.388;9.986;2023-03-26T07:03:33;11.67;;;3.70;;
77581;SDS011;66726;52.388;9.986;2023-03-26T07:06:05;8.50;;;3.70;;
77581;SDS011;66726;52.388;9.986;2023-03-26T07:08:38;6.17;;;2.93;;
77581;SDS011;66726;52.388;9.986;2023-03-26T07:11:10;8.87;;;3.10;;
77581;SDS011;66726;52.388;9.986;2023-03-26T07:13:44;7.83;;;3.23;;
77581;SDS011;66726;52.388;9.986;2023-03-26T07:16:16;7.90;;;3.00;;
77581;SDS011;66726;52.388;9.986;2023-03-26T07:18:50;6.90;;;3.00;;
77581;SDS011;66726;52.388;9.986;2023-03-26T07:21:22;6.63;;;3.10;;
77581;SDS011;66726;52.388;9.986;2023-03-26T07:23:55;6.97;;;2.50;;
77581;SDS011;66726;52.388;9.986;2023-03-26T07:26:29;8.10;;;3.37;;
77581;SDS011;66726;52.388;9.986;2023-03-26T07:29:17;9.70;;;3.07;;
77581;SDS011;66726;52.388;9.986;2023-03-26T07:32:01;6.70;;;2.97;;
77581;SDS011;66726;52.388;9.986;2023-03-26T07:34:49;6.77;;;2.67;;
77581;SDS011;66726;52.388;9.986;2023-03-26T07:37:33;6.67;;;2.60;;
77581;SDS011;66726;52.388;9.986;2023-03-26T07:40:16;6.87;;;3.03;;
77581;SDS011;66726;52.388;9.986;2023-03-26T07:43:14;10.23;;;2.73;;
77581;SDS011;66726;52.388;9.986;2023-03-26T07:45:59;7.13;;;2.73;;
77581;SDS011;66726;52.388;9.986;2023-03-26T07:48:35;6.20;;;2.80;;
77581;SDS011;66726;52.388;9.986;2023-03-26T07:51:15;9.97;;;3.30;;
77581;SDS011;66726;52.388;9.986;2023-03-26T07:53:47;6.93;;;2.93;;
77581;SDS011;66726;52.388;9.986;2023-03-26T07:56:23;8.93;;;2.87;;
77581;SDS011;66726;52.388;9.986;2023-03-26T07:59:04;8.87;;;2.53;;
77581;SDS011;66726;52.388;9.986;2023-03-26T08:01:47;6.90;;;2.30;;
77581;SDS011;66726;52.388;9.986;2023-03-26T08:04:35;5.60;;;2.27;;
77581;SDS011;66726;52.388;9.986;2023-03-26T08:07:26;4.97;;;2.30;;
77581;SDS011;66726;52.388;9.986;2023-03-26T08:10:13;5.67;;;2.40;;
77581;SDS011;66726;52.388;9.986;2023-03-26T08:12:54;9.13;;;2.30;;
77581;SDS011;66726;52.388;9.986;2023-03-26T08:15:37;7.97;;;2.40;;
77581;SDS011;66726;52.388;9.986;2023-03-26T08:18:22;7.60;;;2.30;;
77581;SDS011;66726;52.388;9.986;2023-03-26T08:21:07;5.90;;;2.37;;
77581;SDS011;66726;52.388;9.986;2023-03-26T08:23:49;8.37;;;2.40;;
77581;SDS011;66726;52.388;9.986;2023-03-26T08:26:31;10.43;;;2.23;;
77581;SDS011;66726;52.388;9.986;2023-03-26T08:29:19;7.47;;;2.30;;
77581;SDS011;66726;52.388;9.986;2023-03-26T08:32:11;5.30;;;2.23;;
77581;SDS011;66726;52.388;9.986;2023-03-26T08:34:46;4.53;;;2.10;;
77581;SDS011;66726;52.388;9.986;2023-03-26T08:37:20;8.03;;;2.40;;
77581;SDS011;66726;52.388;9.986;2023-03-26T08:39:55;5.87;;;1.97;;
77581;SDS011;66726;52.388;9.986;2023-03-26T08:42:38;7.63;;;2.37;;
77581;SDS011;66726;52.388;9.986;2023-03-26T08:46:00;5.43;;;2.10;;
77581;SDS011;66726;52.388;9.986;2023-03-26T08:52:25;4.60;;;2.00;;
77581;SDS011;66726;52.388;9.986;2023-03-26T08:55:28;6.13;;;1.97;;
77581;SDS011;66726;52.388;9.986;2023-03-26T08:58:27;5.10;;;2.17;;
77581;SDS011;66726;52.388;9.986;2023-03-26T09:01:37;5.73;;;2.73;;
77581;SDS011;66726;52.388;9.986;2023-03-26T09:11:30;5.73;;;2.40;;
77581;SDS011;66726;52.388;9.986;2023-03-26T09:14:59;6.13;;;2.40;;
77581;SDS011;66726;52.388;9.986;2023-03-26T09:18:12;7.37;;;2.37;;
77581;SDS011;66726;52.388;9.986;2023-03-26T09:21:30;6.63;;;2.33;;
77581;SDS011;66726;52.388;9.986;2023-03-26T09:24:41;4.87;;;2.20;;
77581;SDS011;66726;52.388;9.986;2023-03-26T09:27:49;5.80;;;2.23;;
77581;SDS011;66726;52.388;9.986;2023-03-26T09:30:52;8.23;;;2.93;;
77581;SDS011;66726;52.388;9.986;2023-03-26T09:34:05;7.47;;;2.37;;
77581;SDS011;66726;52.388;9.986;2023-03-26T09:37:02;9.73;;;2.90;;
77581;SDS011;66726;52.388;9.986;2023-03-26T09:39:55;8.20;;;3.20;;
77581;SDS011;66726;52.388;9.986;2023-03-26T09:42:42;9.70;;;3.10;;
77581;SDS011;66726;52.388;9.986;2023-03-26T09:45:30;11.47;;;4.10;;
77581;SDS011;66726;52.388;9.986;2023-03-26T09:48:31;8.03;;;3.90;;
77581;SDS011;66726;52.388;9.986;2023-03-26T09:51:54;12.93;;;3.77;;
77581;SDS011;66726;52.388;9.986;2023-03-26T09:54:42;6.67;;;3.63;;
77581;SDS011;66726;52.388;9.986;2023-03-26T09:57:58;7.10;;;3.47;;
77581;SDS011;66726;52.388;9.986;2023-03-26T10:01:02;9.90;;;3.87;;
77581;SDS011;66726;52.388;9.986;2023-03-26T10:03:50;5.50;;;3.03;;
77581;SDS011;66726;52.388;9.986;2023-03-26T10:06:52;11.27;;;3.37;;
77581;SDS011;66726;52.388;9.986;2023-03-26T10:09:34;6.87;;;3.00;;
77581;SDS011;66726;52.388;9.986;2023-03-26T10:12:23;9.23;;;3.60;;
77581;SDS011;66726;52.388;9.986;2023-03-26T10:15:08;11.77;;;3.83;;
77581;SDS011;66726;52.388;9.986;2023-03-26T10:17:59;10.70;;;4.13;;
77581;SDS011;66726;52.388;9.986;2023-03-26T10:20:56;10.77;;;3.63;;
77581;SDS011;66726;52.388;9.986;2023-03-26T10:23:42;8.57;;;3.77;;
77581;SDS011;66726;52.388;9.986;2023-03-26T10:27:00;10.73;;;3.23;;
77581;SDS011;66726;52.388;9.986;2023-03-26T10:29:57;8.93;;;3.37;;
77581;SDS011;66726;52.388;9.986;2023-03-26T10:33:01;10.90;;;3.10;;
77581;SDS011;66726;52.388;9.986;2023-03-26T10:35:46;8.73;;;3.20;;
77581;SDS011;66726;52.388;9.986;2023-03-26T10:38:44;7.73;;;3.33;;
77581;SDS011;66726;52.388;9.986;2023-03-26T10:41:29;8.20;;;3.07;;
77581;SDS011;66726;52.388;9.986;2023-03-26T10:44:20;8.07;;;2.83;;
77581;SDS011;66726;52.388;9.986;2023-03-26T10:50:25;9.27;;;3.20;;
77581;SDS011;66726;52.388;9.986;2023-03-26T10:53:18;6.60;;;2.83;;
77581;SDS011;66726;52.388;9.986;2023-03-26T10:56:03;6.87;;;2.97;;
77581;SDS011;66726;52.388;9.986;2023-03-26T10:58:48;7.97;;;3.03;;
77581;SDS011;66726;52.388;9.986;2023-03-26T11:01:23;8.27;;;3.00;;
77581;SDS011;66726;52.388;9.986;2023-03-26T11:04:13;8.03;;;3.40;;
77581;SDS011;66726;52.388;9.986;2023-03-26T11:06:57;4.93;;;3.03;;
77581;SDS011;66726;52.388;9.986;2023-03-26T11:09:39;8.07;;;2.97;;
77581;SDS011;66726;52.388;9.986;2023-03-26T11:12:21;6.27;;;2.97;;
77581;SDS011;66726;52.388;9.986;2023-03-26T11:15:09;5.00;;;2.40;;
77581;SDS011;66726;52.388;9.986;2023-03-26T11:17:51;8.63;;;3.03;;
77581;SDS011;66726;52.388;9.986;2023-03-26T11:20:36;6.37;;;2.70;;
77581;SDS011;66726;52.388;9.986;2023-03-26T11:23:17;5.50;;;3.10;;
77581;SDS011;66726;52.388;9.986;2023-03-26T11:26:09;7.00;;;3.10;;
77581;SDS011;66726;52.388;9.986;2023-03-26T11:28:50;8.83;;;3.03;;
77581;SDS011;66726;52.388;9.986;2023-03-26T11:32:02;9.73;;;6.20;;
77581;SDS011;66726;52.388;9.986;2023-03-26T11:34:40;7.57;;;3.10;;
77581;SDS011;66726;52.388;9.986;2023-03-26T11:37:22;9.43;;;2.87;;
77581;SDS011;66726;52.388;9.986;2023-03-26T11:40:08;8.63;;;2.57;;
77581;SDS011;66726;52.388;9.986;2023-03-26T11:42:46;7.90;;;2.60;;
77581;SDS011;66726;52.388;9.986;2023-03-26T11:45:23;6.00;;;2.60;;
77581;SDS011;66726;52.388;9.986;2023-03-26T11:48:03;8.47;;;2.60;;
77581;SDS011;66726;52.388;9.986;2023-03-26T11:50:44;6.33;;;2.80;;
77581;SDS011;66726;52.388;9.986;2023-03-26T11:53:26;5.00;;;2.50;;
77581;SDS011;66726;52.388;9.986;2023-03-26T11:56:07;6.60;;;2.50;;
77581;SDS011;66726;52.388;9.986;2023-03-26T11:58:46;8.03;;;2.37;;
77581;SDS011;66726;52.388;9.986;2023-03-26T12:01:27;10.53;;;2.70;;
77581;SDS011;66726;52.388;9.986;2023-03-26T12:04:16;6.30;;;2.47;;
77581;SDS011;66726;52.388;9.986;2023-03-26T12:06:57;6.33;;;2.60;;
77581;SDS011;66726;52.388;9.986;2023-03-26T12:09:49;4.63;;;2.33;;
77581;SDS011;66726;52.388;9.986;2023-03-26T12:12:42;5.10;;;2.50;;
77581;SDS011;66726;52.388;9.986;2023-03-26T12:15:19;8.57;;;2.80;;
77581;SDS011;66726;52.388;9.986;2023-03-26T12:17:54;6.47;;;2.27;;
77581;SDS011;66726;52.388;9.986;2023-03-26T12:20:45;7.00;;;2.30;;
77581;SDS011;66726;52.388;9.986;2023-03-26T12:23:35;5.73;;;2.30;;
77581;SDS011;66726;52.388;9.986;2023-03-26T12:26:35;5.83;;;2.37;;
77581;SDS011;66726;52.388;9.986;2023-03-26T12:29:14;5.67;;;2.30;;
77581;SDS011;66726;52.388;9.986;2023-03-26T12:31:51;4.50;;;2.03;;
77581;SDS011;66726;52.388;9.986;2023-03-26T12:34:34;5.57;;;2.23;;
77581;SDS011;66726;52.388;9.986;2023-03-26T12:37:07;9.17;;;2.87;;
77581;SDS011;66726;52.388;9.986;2023-03-26T12:40:07;7.40;;;2.10;;
77581;SDS011;66726;52.388;9.986;2023-03-26T12:42:57;5.53;;;2.50;;
77581;SDS011;66726;52.388;9.986;2023-03-26T12:45:53;4.37;;;2.10;;
77581;SDS011;66726;52.388;9.986;2023-03-26T12:48:45;7.57;;;2.27;;
77581;SDS011;66726;52.388;9.986;2023-03-26T12:51:20;8.10;;;3.27;;
77581;SDS011;66726;52.388;9.986;2023-03-26T12:54:12;5.67;;;2.43;;
77581;SDS011;66726;52.388;9.986;2023-03-26T12:57:03;3.40;;;1.93;;
77581;SDS011;66726;52.388;9.986;2023-03-26T12:59:51;5.43;;;2.10;;
77581;SDS011;66726;52.388;9.986;2023-03-26T13:02:56;6.00;;;2.40;;
77581;SDS011;66726;52.388;9.986;2023-03-26T13:05:46;7.93;;;2.53;;
77581;SDS011;66726;52.388;9.986;2023-03-26T13:08:43;6.47;;;2.57;;
77581;SDS011;66726;52.388;9.986;2023-03-26T13:11:43;6.60;;;2.47;;
77581;SDS011;66726;52.388;9.986;2023-03-26T13:14:28;6.47;;;2.30;;
77581;SDS011;66726;52.388;9.986;2023-03-26T13:17:25;7.00;;;2.23;;
77581;SDS011;66726;52.388;9.986;2023-03-26T13:20:07;8.27;;;2.43;;
77581;SDS011;66726;52.388;9.986;2023-03-26T13:22:51;6.67;;;2.93;;
77581;SDS011;66726;52.388;9.986;2023-03-26T13:25:37;6.80;;;2.60;;
77581;SDS011;66726;52.388;9.986;2023-03-26T13:28:24;9.07;;;2.70;;
77581;SDS011;66726;52.388;9.986;2023-03-26T13:31:08;11.13;;;2.40;;
77581;SDS011;66726;52.388;9.986;2023-03-26T13:33:50;7.00;;;2.40;;
77581;SDS011;66726;52.388;9.986;2023-03-26T13:36:32;10.43;;;2.80;;
77581;SDS011;66726;52.388;9.986;2023-03-26T13:39:20;9.03;;;2.67;;
77581;SDS011;66726;52.388;9.986;2023-03-26T13:42:06;6.13;;;2.40;;
77581;SDS011;66726;52.388;9.986;2023-03-26T13:45:00;6.23;;;2.60;;
77581;SDS011;66726;52.388;9.986;2023-03-26T13:47:52;10.23;;;4.37;;
77581;SDS011;66726;52.388;9.986;2023-03-26T13:50:31;7.23;;;2.53;;
77581;SDS011;66726;52.388;9.986;2023-03-26T13:53:10;5.23;;;2.67;;
77581;SDS011;66726;52.388;9.986;2023-03-26T13:55:50;6.63;;;2.60;;
77581;SDS011;66726;52.388;9.986;2023-03-26T13:58:27;7.53;;;2.63;;
77581;SDS011;66726;52.388;9.986;2023-03-26T14:01:07;5.70;;;2.43;;
77581;SDS011;66726;52.388;9.986;2023-03-26T14:03:49;7.40;;;2.40;;
77581;SDS011;66726;52.388;9.986;2023-03-26T14:06:28;6.13;;;2.47;;
77581;SDS011;66726;52.388;9.986;2023-03-26T14:09:09;7.97;;;2.30;;
77581;SDS011;66726;52.388;9.986;2023-03-26T14:11:50;7.83;;;2.93;;
77581;SDS011;66726;52.388;9.986;2023-03-26T14:14:48;7.60;;;2.20;;
77581;SDS011;66726;52.388;9.986;2023-03-26T14:17:29;10.03;;;3.00;;
77581;SDS011;66726;52.388;9.986;2023-03-26T14:26:49;7.57;;;2.80;;
77581;SDS011;66726;52.388;9.986;2023-03-26T14:29:44;9.53;;;3.10;;
77581;SDS011;66726;52.388;9.986;2023-03-26T14:32:46;6.93;;;2.63;;
77581;SDS011;66726;52.388;9.986;2023-03-26T14:35:33;8.00;;;2.77;;
77581;SDS011;66726;52.388;9.986;2023-03-26T14:38:22;10.27;;;3.03;;
77581;SDS011;66726;52.388;9.986;2023-03-26T14:41:38;6.67;;;2.77;;
77581;SDS011;66726;52.388;9.986;2023-03-26T14:44:33;6.60;;;2.80;;
77581;SDS011;66726;52.388;9.986;2023-03-26T14:47:47;10.93;;;3.40;;
77581;SDS011;66726;52.388;9.986;2023-03-26T14:50:47;8.67;;;2.90;;
77581;SDS011;66726;52.388;9.986;2023-03-26T14:53:36;10.30;;;3.33;;
77581;SDS011;66726;52.388;9.986;2023-03-26T14:56:19;15.03;;;4.50;;
77581;SDS011;66726;52.388;9.986;2023-03-26T14:59:26;10.63;;;3.93;;
77581;SDS011;66726;52.388;9.986;2023-03-26T15:22:45;8.37;;;2.67;;
77581;SDS011;66726;52.388;9.986;2023-03-26T15:26:05;8.03;;;2.53;;
77581;SDS011;66726;52.388;9.986;2023-03-26T15:29:18;6.77;;;2.77;;
77581;SDS011;66726;52.388;9.986;2023-03-26T15:35:44;6.10;;;2.70;;
77581;SDS011;66726;52.388;9.986;2023-03-26T15:42:44;7.37;;;2.40;;
77581;SDS011;66726;52.388;9.986;2023-03-26T15:45:28;11.33;;;3.00;;
77581;SDS011;66726;52.388;9.986;2023-03-26T15:48:21;5.53;;;2.70;;
77581;SDS011;66726;52.388;9.986;2023-03-26T15:51:14;6.67;;;2.80;;
77581;SDS011;66726;52.388;9.986;2023-03-26T15:54:19;6.93;;;2.60;;
77581;SDS011;66726;52.388;9.986;2023-03-26T15:57:02;5.83;;;2.40;;
77581;SDS011;66726;52.388;9.986;2023-03-26T15:59:53;6.33;;;2.43;;
77581;SDS011;66726;52.388;9.986;2023-03-26T16:02:42;7.80;;;2.87;;
77581;SDS011;66726;52.388;9.986;2023-03-26T16:05:40;7.23;;;2.73;;
77581;SDS011;66726;52.388;9.986;2023-03-26T16:08:28;10.43;;;2.43;;
77581;SDS011;66726;52.388;9.986;2023-03-26T16:14:17;6.70;;;2.47;;
77581;SDS011;66726;52.388;9.986;2023-03-26T16:16:52;8.90;;;2.90;;
77581;SDS011;66726;52.388;9.986;2023-03-26T16:19:35;8.53;;;3.07;;
77581;SDS011;66726;52.388;9.986;2023-03-26T16:25:31;9.47;;;2.90;;
77581;SDS011;66726;52.388;9.986;2023-03-26T16:28:33;5.90;;;2.97;;
77581;SDS011;66726;52.388;9.986;2023-03-26T16:31:24;7.30;;;2.53;;
77581;SDS011;66726;52.388;9.986;2023-03-26T16:37:24;7.37;;;2.80;;
77581;SDS011;66726;52.388;9.986;2023-03-26T16:43:15;7.40;;;3.10;;
77581;SDS011;66726;52.388;9.986;2023-03-26T16:46:14;7.87;;;2.60;;
77581;SDS011;66726;52.388;9.986;2023-03-26T16:48:59;6.40;;;3.10;;
77581;SDS011;66726;52.388;9.986;2023-03-26T16:51:48;9.87;;;3.00;;
77581;SDS011;66726;52.388;9.986;2023-03-26T16:54:35;9.10;;;2.73;;
77581;SDS011;66726;52.388;9.986;2023-03-26T16:57:19;10.70;;;3.07;;
77581;SDS011;66726;52.388;9.986;2023-03-26T17:00:03;10.13;;;2.90;;
77581;SDS011;66726;52.388;9.986;2023-03-26T17:03:00;9.30;;;2.70;;
77581;SDS011;66726;52.388;9.986;2023-03-26T17:05:49;12.50;;;3.10;;
77581;SDS011;66726;52.388;9.986;2023-03-26T17:08:35;12.43;;;2.80;;
77581;SDS011;66726;52.388;9.986;2023-03-26T17:11:18;13.50;;;3.30;;
77581;SDS011;66726;52.388;9.986;2023-03-26T17:13:58;8.73;;;3.03;;
77581;SDS011;66726;52.388;9.986;2023-03-26T17:16:41;11.97;;;3.03;;